Terminal Aerodrome Forecast
Issued by NWS Austin/San Antonio, TX

Home | Current Version | Previous Version | Text Only | Print | Product List | Glossary On
Versions: 1 2 3 4 5 6 7 8 9 10 11 12 13 14 15
468
FTUS44 KEWX 241737
TAFAUS
TAF
KAUS 241737Z 2418/2524 19008KT P6SM FEW050
     FM242000 15012KT P6SM SCT060 SCT250
     FM251100 18005KT P6SM BKN015
     FM251400 19008KT P6SM SCT040 SCT100
     FM251900 15011KT P6SM BKN050 BKN100=

USA.gov is the U.S. government's official web portal to all federal, state and local government web resources and services.